Time;durP1;ratioP1;P1;durP2;ratioP2;P2;SDS_P1;SDS_P2;PMS_P1;PMS_P2;Temp;Humidity;BMP_temperature;BMP_pressure;BME280_temperature;BME280_humidity;BME280_pressure;Samples;Min_cycle;Max_cycle;Signal;HPM_P1;HPM_P2
2021/05/01 00:01:57;;;;;;;2.10;2.00;;;13.60;99.90;;;;;;5051396;28;20221;-77
2021/05/01 00:04:23;;;;;;;2.35;2.25;;;13.60;99.90;;;;;;5049952;28;20237;-77
2021/05/01 00:06:50;;;;;;;3.25;3.03;;;13.60;99.90;;;;;;5053048;28;20198;-76
2021/05/01 00:09:16;;;;;;;3.13;2.92;;;13.50;99.90;;;;;;5044374;28;20759;-78
2021/05/01 00:11:44;;;;;;;4.07;3.78;;;13.20;99.90;;;;;;5049138;28;20219;-78
2021/05/01 00:14:11;;;;;;;3.30;3.10;;;13.00;99.90;;;;;;5047564;28;20225;-78
2021/05/01 00:16:37;;;;;;;3.28;3.08;;;12.90;99.90;;;;;;5046629;28;20203;-79
2021/05/01 00:19:06;;;;;;;3.35;3.05;;;12.90;99.90;;;;;;5051276;28;20226;-79
2021/05/01 00:21:33;;;;;;;3.72;3.35;;;12.90;99.90;;;;;;5046246;28;20251;-77
2021/05/01 00:23:59;;;;;;;4.25;3.92;;;12.90;99.90;;;;;;5051533;28;20222;-79
2021/05/01 00:26:26;;;;;;;4.75;4.32;;;12.90;99.90;;;;;;5047308;28;20199;-78
2021/05/01 00:28:53;;;;;;;3.90;3.60;;;12.80;99.90;;;;;;5049885;28;20853;-78
2021/05/01 00:31:20;;;;;;;3.83;3.53;;;12.80;99.90;;;;;;5047304;28;20215;-77
2021/05/01 00:33:47;;;;;;;2.80;2.60;;;12.80;99.90;;;;;;5047703;28;20667;-76
2021/05/01 00:36:14;;;;;;;2.80;2.60;;;12.80;99.90;;;;;;5046743;28;20233;-77
2021/05/01 00:38:43;;;;;;;2.83;2.63;;;12.90;99.90;;;;;;5049619;28;20222;-79
2021/05/01 00:41:09;;;;;;;2.75;2.55;;;13.00;99.90;;;;;;5045779;22;20215;-71
2021/05/01 00:43:40;;;;;;;2.63;2.42;;;13.10;99.90;;;;;;5005908;28;20196;-71
2021/05/01 00:46:07;;;;;;;2.72;2.53;;;13.10;99.90;;;;;;5014012;28;20196;-71
2021/05/01 00:48:34;;;;;;;2.38;2.22;;;13.10;99.90;;;;;;5009046;28;20196;-71
2021/05/01 00:51:02;;;;;;;2.30;2.20;;;13.20;99.90;;;;;;5013941;28;20224;-71
2021/05/01 00:53:29;;;;;;;2.70;2.50;;;13.10;99.90;;;;;;5014931;28;20195;-71
2021/05/01 00:55:56;;;;;;;2.85;2.53;;;13.20;99.90;;;;;;5023878;28;20212;-71
2021/05/01 00:58:23;;;;;;;2.83;2.63;;;13.10;99.90;;;;;;5026871;28;20577;-71
2021/05/01 01:01:05;;;;;;;2.22;2.10;;;13.10;99.90;;;;;;5013759;28;20715;-72
2021/05/01 01:03:32;;;;;;;2.53;2.40;;;13.00;99.90;;;;;;5011895;28;20204;-71
2021/05/01 01:05:59;;;;;;;2.40;2.30;;;13.00;99.90;;;;;;5012853;28;20254;-71
2021/05/01 01:08:26;;;;;;;2.58;2.38;;;13.10;99.90;;;;;;5012209;28;20210;-71
2021/05/01 01:10:53;;;;;;;2.30;2.20;;;13.00;99.90;;;;;;5009182;28;20224;-71
2021/05/01 01:13:20;;;;;;;2.45;2.35;;;13.10;99.90;;;;;;5014237;28;20212;-71
2021/05/01 01:15:48;;;;;;;2.25;2.15;;;13.10;99.90;;;;;;5021086;28;20672;-71
2021/05/01 01:18:15;;;;;;;2.40;2.20;;;13.10;99.90;;;;;;5008842;28;20557;-71
2021/05/01 01:20:43;;;;;;;2.28;2.08;;;13.10;99.90;;;;;;5010642;28;20756;-71
2021/05/01 01:23:11;;;;;;;1.90;1.80;;;13.10;99.90;;;;;;5016066;28;20207;-71
2021/05/01 01:25:38;;;;;;;2.20;2.10;;;13.10;99.90;;;;;;5013562;28;20224;-71
2021/05/01 01:28:05;;;;;;;2.25;2.10;;;13.00;99.90;;;;;;5007780;28;20204;-71
2021/05/01 01:30:32;;;;;;;2.38;2.28;;;13.00;99.90;;;;;;5011938;28;20602;-71
2021/05/01 01:33:00;;;;;;;2.33;2.22;;;13.00;99.90;;;;;;5011724;28;20197;-71
2021/05/01 01:35:27;;;;;;;2.38;2.20;;;12.90;99.90;;;;;;5013054;28;20220;-71
2021/05/01 01:37:55;;;;;;;3.45;3.15;;;12.90;99.90;;;;;;5019298;28;20200;-71
2021/05/01 01:40:24;;;;;;;3.00;2.80;;;12.90;99.90;;;;;;5014848;28;20224;-72
2021/05/01 01:42:52;;;;;;;3.03;2.83;;;12.80;99.90;;;;;;5024204;28;20627;-71
2021/05/01 01:45:20;;;;;;;2.80;2.60;;;12.80;99.90;;;;;;5014280;28;20563;-71
2021/05/01 01:47:47;;;;;;;2.83;2.63;;;12.70;99.90;;;;;;5010854;28;20200;-71
2021/05/01 01:50:16;;;;;;;3.05;2.85;;;12.70;99.90;;;;;;5008536;28;20717;-71
2021/05/01 01:52:43;;;;;;;2.80;2.60;;;12.70;99.90;;;;;;5014196;28;20203;-71
2021/05/01 01:55:11;;;;;;;2.30;2.20;;;12.70;99.90;;;;;;5013684;28;20223;-71
2021/05/01 01:57:39;;;;;;;2.80;2.60;;;12.60;99.90;;;;;;5015883;28;20208;-71
2021/05/01 02:00:08;;;;;;;2.60;2.50;;;12.70;99.90;;;;;;5014349;28;20212;-71
2021/05/01 02:02:34;;;;;;;2.67;2.58;;;12.70;99.90;;;;;;5012175;28;20220;-71
2021/05/01 02:05:01;;;;;;;2.95;2.75;;;12.70;99.90;;;;;;5015221;28;20215;-71
2021/05/01 02:07:28;;;;;;;2.65;2.45;;;12.70;99.90;;;;;;5011180;28;20204;-71
2021/05/01 02:09:54;;;;;;;3.20;3.00;;;12.70;99.90;;;;;;5009532;28;20626;-71
2021/05/01 02:12:21;;;;;;;2.65;2.55;;;12.70;99.90;;;;;;5014441;28;20196;-71
2021/05/01 02:14:48;;;;;;;3.30;3.00;;;12.70;99.90;;;;;;5013548;28;20721;-71
2021/05/01 02:17:15;;;;;;;2.83;2.63;;;12.70;99.90;;;;;;5010292;28;20200;-71
2021/05/01 02:19:42;;;;;;;2.92;2.72;;;12.70;99.90;;;;;;5015259;28;20216;-71
2021/05/01 02:22:08;;;;;;;2.65;2.55;;;12.60;99.90;;;;;;5011716;28;20235;-71
2021/05/01 02:24:35;;;;;;;3.25;3.05;;;12.60;99.90;;;;;;5011707;28;20239;-71
2021/05/01 02:27:02;;;;;;;3.20;3.00;;;12.60;99.90;;;;;;5027201;28;20192;-71
2021/05/01 02:29:28;;;;;;;2.97;2.78;;;12.50;99.90;;;;;;5014115;28;20227;-71
2021/05/01 02:31:56;;;;;;;3.40;3.20;;;12.60;99.90;;;;;;5016023;28;20243;-71
2021/05/01 02:34:22;;;;;;;2.80;2.60;;;12.60;99.90;;;;;;5017182;28;20211;-71
2021/05/01 02:36:49;;;;;;;2.85;2.65;;;12.60;99.90;;;;;;5011471;28;20200;-71
2021/05/01 02:39:16;;;;;;;3.67;2.80;;;12.60;99.90;;;;;;5010032;28;20217;-71
2021/05/01 02:41:42;;;;;;;3.05;2.85;;;12.70;99.90;;;;;;5011981;28;20220;-71
2021/05/01 02:44:09;;;;;;;3.03;2.80;;;12.60;99.90;;;;;;5014664;28;20246;-71
2021/05/01 02:46:35;;;;;;;3.05;2.85;;;12.70;99.90;;;;;;5010597;28;20294;-71
2021/05/01 02:49:03;;;;;;;2.88;2.67;;;12.70;99.90;;;;;;5010170;28;20278;-71
2021/05/01 02:51:30;;;;;;;2.78;2.58;;;12.70;99.90;;;;;;5005700;28;20828;-71
2021/05/01 02:53:56;;;;;;;3.33;3.13;;;12.70;99.90;;;;;;5016650;28;20199;-71
2021/05/01 02:56:23;;;;;;;2.95;2.75;;;12.70;99.90;;;;;;5009832;28;20219;-71
2021/05/01 02:58:49;;;;;;;3.03;2.83;;;12.70;99.90;;;;;;5007239;28;20200;-71
2021/05/01 03:01:16;;;;;;;3.00;2.80;;;12.70;99.90;;;;;;5009304;28;20228;-71
2021/05/01 03:03:46;;;;;;;3.13;2.88;;;12.70;99.90;;;;;;5012165;28;20489;-71
2021/05/01 03:06:16;;;;;;;2.70;2.50;;;12.70;99.90;;;;;;5014662;28;20212;-71
2021/05/01 03:08:42;;;;;;;3.00;2.80;;;12.70;99.90;;;;;;5015478;28;20195;-71
2021/05/01 03:11:09;;;;;;;2.80;2.60;;;12.70;99.90;;;;;;5025586;28;20216;-71
2021/05/01 03:13:36;;;;;;;3.13;2.92;;;12.60;99.90;;;;;;5015110;28;20206;-71
2021/05/01 03:16:03;;;;;;;3.08;2.80;;;12.60;99.90;;;;;;5012009;28;20234;-71
2021/05/01 03:18:29;;;;;;;3.00;2.80;;;12.60;99.90;;;;;;5011696;28;20200;-71
2021/05/01 03:20:56;;;;;;;2.70;2.50;;;12.60;99.90;;;;;;5008654;28;20235;-71
2021/05/01 03:23:26;;;;;;;2.90;2.70;;;12.60;99.90;;;;;;5013464;28;20200;-71
2021/05/01 03:25:52;;;;;;;2.88;2.67;;;12.50;99.90;;;;;;5005564;28;20590;-71
2021/05/01 03:28:21;;;;;;;2.95;2.75;;;12.60;99.90;;;;;;5015117;28;20200;-71
2021/05/01 03:30:47;;;;;;;2.97;2.78;;;12.60;99.90;;;;;;5010694;28;20810;-71
2021/05/01 03:33:14;;;;;;;3.10;2.90;;;12.60;99.90;;;;;;5019757;28;20191;-71
2021/05/01 03:35:41;;;;;;;3.25;2.95;;;12.60;99.90;;;;;;5014238;28;20633;-71
2021/05/01 03:38:08;;;;;;;2.88;2.67;;;12.60;99.90;;;;;;5009182;28;20196;-71
2021/05/01 03:40:35;;;;;;;2.90;2.70;;;12.70;99.90;;;;;;5013930;28;20290;-71
2021/05/01 03:43:02;;;;;;;2.60;2.50;;;12.70;99.90;;;;;;5005507;28;20224;-71
2021/05/01 03:45:29;;;;;;;2.53;2.42;;;12.70;99.90;;;;;;5006995;28;20220;-71
2021/05/01 03:47:55;;;;;;;2.67;2.58;;;12.70;99.90;;;;;;5017723;28;20193;-71
2021/05/01 03:50:22;;;;;;;2.80;2.60;;;12.80;99.90;;;;;;5009846;28;20244;-71
2021/05/01 03:52:49;;;;;;;2.30;2.20;;;12.70;99.90;;;;;;5018956;28;20239;-71
2021/05/01 03:55:15;;;;;;;2.70;2.50;;;12.70;99.90;;;;;;5022333;28;20222;-71
2021/05/01 03:57:43;;;;;;;2.75;2.55;;;12.70;99.90;;;;;;5018158;28;20193;-71
2021/05/01 04:00:11;;;;;;;2.45;2.35;;;12.70;99.90;;;;;;5015120;28;20217;-71
2021/05/01 04:02:39;;;;;;;3.00;2.80;;;12.60;99.90;;;;;;5011007;28;20222;-71
2021/05/01 04:05:06;;;;;;;2.53;2.38;;;12.60;99.90;;;;;;5016793;28;20223;-71
2021/05/01 04:07:33;;;;;;;2.92;2.72;;;12.60;99.90;;;;;;5014954;28;20211;-71
2021/05/01 04:10:00;;;;;;;2.78;2.58;;;12.60;99.90;;;;;;5018241;28;20641;-71
2021/05/01 04:12:26;;;;;;;2.95;2.75;;;12.60;99.90;;;;;;5016789;28;20204;-71
2021/05/01 04:14:54;;;;;;;2.92;2.72;;;12.60;99.90;;;;;;5013727;28;20224;-71
2021/05/01 04:17:20;;;;;;;2.90;2.70;;;12.50;99.90;;;;;;5022494;28;20203;-71
2021/05/01 04:19:47;;;;;;;3.00;2.80;;;12.50;99.90;;;;;;5012912;28;20223;-71
2021/05/01 04:22:14;;;;;;;2.97;2.78;;;12.60;99.90;;;;;;5014781;28;20270;-71
2021/05/01 04:24:40;;;;;;;3.30;3.05;;;12.50;99.90;;;;;;5013993;28;20216;-71
2021/05/01 04:27:07;;;;;;;2.85;2.65;;;12.50;99.90;;;;;;5016652;28;20697;-71
2021/05/01 04:29:34;;;;;;;3.03;2.83;;;12.50;99.90;;;;;;5015283;28;20216;-71
2021/05/01 04:32:01;;;;;;;3.40;3.20;;;12.60;99.90;;;;;;5016705;28;20219;-71
2021/05/01 04:34:28;;;;;;;3.15;2.95;;;12.50;99.90;;;;;;5011632;28;20593;-71
2021/05/01 04:36:54;;;;;;;2.90;2.75;;;12.60;99.90;;;;;;5015407;28;20209;-71
2021/05/01 04:39:21;;;;;;;3.08;2.80;;;12.60;99.90;;;;;;5020403;28;20386;-71
2021/05/01 04:41:48;;;;;;;3.03;2.83;;;12.70;99.90;;;;;;5018540;28;20231;-71
2021/05/01 04:44:15;;;;;;;2.63;2.42;;;12.80;99.90;;;;;;5012254;28;20196;-71
2021/05/01 04:46:41;;;;;;;2.97;2.78;;;12.80;99.90;;;;;;5018996;28;20196;-71
2021/05/01 04:49:09;;;;;;;2.70;2.50;;;13.00;99.90;;;;;;5020761;28;20211;-71
2021/05/01 04:51:36;;;;;;;2.47;2.38;;;13.20;99.90;;;;;;5014219;28;20685;-71
2021/05/01 04:54:03;;;;;;;2.80;2.60;;;13.40;99.90;;;;;;5018160;28;20202;-71
2021/05/01 04:56:31;;;;;;;2.58;2.45;;;13.50;99.90;;;;;;5009785;28;20494;-71
2021/05/01 04:58:57;;;;;;;2.67;2.47;;;13.60;99.90;;;;;;5018257;28;20195;-71
2021/05/01 05:01:24;;;;;;;2.78;2.58;;;13.80;99.90;;;;;;5012648;28;20247;-71
2021/05/01 05:03:51;;;;;;;3.28;3.05;;;13.80;99.90;;;;;;5017740;28;20670;-71
2021/05/01 05:06:19;;;;;;;3.67;3.38;;;14.00;99.90;;;;;;5014601;28;20228;-71
2021/05/01 05:08:46;;;;;;;3.40;3.17;;;14.10;99.90;;;;;;5016676;28;20254;-71
2021/05/01 05:11:12;;;;;;;3.40;3.10;;;14.20;99.90;;;;;;5015218;28;20734;-71
2021/05/01 05:13:39;;;;;;;3.42;3.13;;;14.30;99.90;;;;;;5014732;28;20666;-71
2021/05/01 05:16:06;;;;;;;4.00;3.70;;;14.30;99.90;;;;;;5014795;28;20216;-71
2021/05/01 05:18:32;;;;;;;4.10;3.28;;;14.50;99.90;;;;;;5012423;28;20191;-71
2021/05/01 05:21:00;;;;;;;3.28;3.08;;;14.60;99.90;;;;;;5012314;28;20228;-71
2021/05/01 05:23:27;;;;;;;2.90;2.70;;;14.80;99.90;;;;;;5015672;28;20246;-71
2021/05/01 05:25:54;;;;;;;3.60;3.40;;;14.90;99.90;;;;;;5026420;28;20551;-71
2021/05/01 05:28:21;;;;;;;4.10;3.70;;;15.00;99.90;;;;;;5013097;28;20207;-71
2021/05/01 05:30:47;;;;;;;3.00;2.80;;;15.10;99.90;;;;;;5013980;28;20215;-71
2021/05/01 05:33:14;;;;;;;2.92;2.72;;;15.20;99.90;;;;;;5012587;28;20254;-71
2021/05/01 05:35:41;;;;;;;3.65;3.20;;;15.20;99.90;;;;;;5016684;28;20216;-71
2021/05/01 05:38:08;;;;;;;3.38;3.17;;;15.20;99.90;;;;;;5010009;28;20258;-71
2021/05/01 05:40:39;;;;;;;4.43;3.47;;;15.30;99.90;;;;;;5015301;28;20219;-71
2021/05/01 05:43:06;;;;;;;4.00;3.70;;;15.50;99.90;;;;;;5017276;28;20239;-71
2021/05/01 05:45:33;;;;;;;3.60;3.38;;;15.50;99.90;;;;;;5011837;28;20211;-71
2021/05/01 05:48:00;;;;;;;3.65;3.35;;;15.60;99.90;;;;;;5011576;28;20200;-72
2021/05/01 05:50:26;;;;;;;3.13;2.90;;;15.60;99.90;;;;;;5011245;28;20236;-71
2021/05/01 05:52:53;;;;;;;4.07;3.60;;;15.60;99.90;;;;;;5014153;28;20200;-71
2021/05/01 05:55:20;;;;;;;3.75;3.22;;;15.60;99.90;;;;;;5015659;28;20222;-71
2021/05/01 05:57:50;;;;;;;3.65;3.45;;;15.60;99.90;;;;;;5013201;28;20196;-71
2021/05/01 06:00:18;;;;;;;3.55;3.28;;;15.70;99.90;;;;;;5013777;28;20228;-71
2021/05/01 06:02:46;;;;;;;3.10;2.90;;;15.80;99.90;;;;;;5011848;28;20220;-71
2021/05/01 06:05:17;;;;;;;4.22;3.92;;;15.90;99.90;;;;;;5014816;28;20643;-71
2021/05/01 06:07:47;;;;;;;3.50;3.30;;;15.90;99.90;;;;;;5015410;28;20195;-71
2021/05/01 06:10:14;;;;;;;3.13;2.92;;;16.00;99.90;;;;;;5037356;28;20216;-71
2021/05/01 06:12:42;;;;;;;3.35;3.00;;;16.10;99.90;;;;;;5009042;28;20193;-71
2021/05/01 06:15:12;;;;;;;3.53;3.22;;;16.20;99.90;;;;;;5014129;28;20223;-71
2021/05/01 06:17:40;;;;;;;3.58;3.28;;;16.40;99.90;;;;;;5012073;28;20574;-71
2021/05/01 06:20:08;;;;;;;3.20;3.00;;;16.50;99.90;;;;;;5021341;28;20222;-71
2021/05/01 06:22:35;;;;;;;3.58;3.28;;;16.60;99.90;;;;;;5017205;28;20224;-71
2021/05/01 06:25:04;;;;;;;3.08;2.88;;;16.70;99.90;;;;;;5020250;28;20216;-71
2021/05/01 06:27:31;;;;;;;2.95;2.75;;;16.60;99.90;;;;;;5009197;28;20227;-71
2021/05/01 06:29:58;;;;;;;3.90;3.60;;;16.70;99.90;;;;;;5013543;28;20307;-73
2021/05/01 06:32:26;;;;;;;3.80;3.50;;;16.70;99.90;;;;;;5012732;28;20583;-74
2021/05/01 06:34:54;;;;;;;3.08;2.88;;;16.70;99.90;;;;;;5017138;28;20220;-73
2021/05/01 06:37:21;;;;;;;3.15;2.95;;;16.80;99.90;;;;;;5012181;28;20200;-74
2021/05/01 06:39:49;;;;;;;3.50;2.90;;;16.90;99.90;;;;;;5012479;28;20222;-73
2021/05/01 06:42:19;;;;;;;2.78;2.58;;;17.10;99.90;;;;;;5064899;22;20222;-74
2021/05/01 06:44:53;;;;;;;2.88;2.67;;;17.00;99.90;;;;;;5048717;28;20230;-74
2021/05/01 06:47:26;;;;;;;3.38;2.83;;;17.10;99.90;;;;;;5054071;28;20256;-75
2021/05/01 06:49:56;;;;;;;2.78;2.58;;;17.20;99.90;;;;;;5058855;28;20696;-74
2021/05/01 06:52:23;;;;;;;3.40;3.10;;;17.30;99.90;;;;;;5043445;28;20684;-74
2021/05/01 06:54:52;;;;;;;3.03;2.83;;;17.40;99.90;;;;;;5032488;28;20717;-74
2021/05/01 06:57:23;;;;;;;3.13;2.90;;;17.40;99.90;;;;;;5035447;28;20665;-74
2021/05/01 06:59:54;;;;;;;3.03;2.70;;;17.20;99.90;;;;;;5037014;28;20270;-74
2021/05/01 07:02:26;;;;;;;3.20;3.00;;;17.20;99.90;;;;;;5023741;28;20215;-74
2021/05/01 07:04:54;;;;;;;3.55;3.22;;;17.10;99.90;;;;;;5022449;28;20277;-74
2021/05/01 07:07:22;;;;;;;3.03;2.65;;;17.10;99.90;;;;;;5029139;28;20303;-74
2021/05/01 07:09:49;;;;;;;2.83;2.63;;;17.10;99.90;;;;;;5035317;28;20744;-74
2021/05/01 07:12:18;;;;;;;3.08;2.85;;;17.30;99.90;;;;;;5033117;28;20258;-74
2021/05/01 07:14:45;;;;;;;3.10;2.90;;;17.50;99.90;;;;;;5027977;28;20227;-74
2021/05/01 07:17:13;;;;;;;3.28;2.65;;;17.40;99.90;;;;;;5034498;28;20203;-74
2021/05/01 07:19:41;;;;;;;3.58;3.03;;;17.50;99.90;;;;;;5021549;28;20609;-74
2021/05/01 07:22:08;;;;;;;3.35;3.10;;;17.50;99.90;;;;;;5018130;28;20722;-74
2021/05/01 07:24:36;;;;;;;3.05;2.83;;;17.50;99.90;;;;;;5023973;28;20203;-74
2021/05/01 07:27:04;;;;;;;3.10;2.80;;;17.40;99.90;;;;;;5022097;28;20191;-73
2021/05/01 07:29:34;;;;;;;2.90;2.70;;;17.20;99.90;;;;;;5018655;28;20640;-74
2021/05/01 07:32:04;;;;;;;3.30;3.10;;;17.20;99.90;;;;;;5018290;28;20791;-74
2021/05/01 07:34:32;;;;;;;3.22;3.00;;;17.20;99.90;;;;;;5017581;28;20210;-74
2021/05/01 07:37:03;;;;;;;2.97;2.78;;;17.20;99.90;;;;;;5024434;28;20212;-74
2021/05/01 07:39:31;;;;;;;2.65;2.45;;;17.20;99.90;;;;;;5021002;28;20257;-72
2021/05/01 07:42:01;;;;;;;3.60;2.65;;;17.40;99.90;;;;;;5026829;28;20337;-74
2021/05/01 07:44:30;;;;;;;2.83;2.63;;;17.40;99.90;;;;;;5036681;28;20657;-74
2021/05/01 07:46:59;;;;;;;2.55;2.35;;;17.40;99.90;;;;;;5033373;28;20703;-73
2021/05/01 07:49:27;;;;;;;2.63;2.45;;;17.50;99.90;;;;;;5031585;28;20227;-72
2021/05/01 07:51:53;;;;;;;3.45;2.80;;;17.90;99.90;;;;;;5033846;28;20230;-74
2021/05/01 07:54:21;;;;;;;2.13;2.03;;;18.00;99.90;;;;;;5027841;28;20191;-74
2021/05/01 07:56:49;;;;;;;2.72;2.53;;;18.20;99.90;;;;;;5020218;28;20746;-74
2021/05/01 07:59:15;;;;;;;2.67;2.47;;;18.70;99.90;;;;;;5025038;28;20257;-73
2021/05/01 08:01:42;;;;;;;2.40;2.25;;;18.70;99.90;;;;;;5032014;28;20313;-73
2021/05/01 08:04:10;;;;;;;3.17;2.97;;;18.70;99.90;;;;;;5043589;28;20191;-73
2021/05/01 08:06:37;;;;;;;3.47;2.95;;;18.40;99.90;;;;;;5026296;28;20476;-73
2021/05/01 08:09:04;;;;;;;2.90;2.70;;;18.20;99.90;;;;;;5029092;28;20210;-72
2021/05/01 08:11:32;;;;;;;2.85;2.47;;;18.20;99.90;;;;;;5029635;28;20235;-74
2021/05/01 08:13:58;;;;;;;2.60;2.40;;;18.20;99.90;;;;;;5035045;28;20501;-76
2021/05/01 08:16:25;;;;;;;2.88;2.67;;;18.20;99.90;;;;;;5028619;28;20218;-74
2021/05/01 08:18:52;;;;;;;3.00;2.80;;;18.30;99.90;;;;;;5022527;28;20214;-74
2021/05/01 08:21:19;;;;;;;3.08;2.88;;;18.20;99.90;;;;;;5027060;28;20230;-72
2021/05/01 08:23:45;;;;;;;2.75;2.55;;;18.40;99.90;;;;;;5021645;28;20199;-72
2021/05/01 08:26:12;;;;;;;2.75;2.55;;;18.60;99.90;;;;;;5026801;28;20219;-72
2021/05/01 08:28:40;;;;;;;3.20;2.70;;;18.70;99.90;;;;;;5025096;28;20207;-72
2021/05/01 08:31:06;;;;;;;2.60;2.45;;;18.80;99.90;;;;;;5026364;28;20232;-72
2021/05/01 08:33:35;;;;;;;3.42;3.13;;;19.00;99.90;;;;;;5024588;28;20429;-74
2021/05/01 08:36:01;;;;;;;2.45;2.35;;;19.00;99.90;;;;;;5038549;28;20226;-74
2021/05/01 08:38:32;;;;;;;2.60;2.45;;;18.90;99.90;;;;;;5028138;28;20218;-74
2021/05/01 08:40:59;;;;;;;2.63;2.42;;;18.90;99.90;;;;;;5035648;28;20233;-73
2021/05/01 08:43:26;;;;;;;2.63;2.42;;;19.20;99.90;;;;;;5024298;28;20226;-72
2021/05/01 08:45:54;;;;;;;2.78;2.40;;;19.30;99.90;;;;;;5035830;28;20219;-74
2021/05/01 08:48:21;;;;;;;2.72;2.53;;;19.40;99.90;;;;;;5018875;28;20689;-73
2021/05/01 08:50:51;;;;;;;2.95;2.40;;;19.60;99.90;;;;;;5025072;28;20638;-71
2021/05/01 08:53:17;;;;;;;2.70;2.50;;;19.60;99.90;;;;;;5027713;28;20650;-72
2021/05/01 08:55:44;;;;;;;2.40;2.30;;;19.60;99.90;;;;;;5029320;28;20226;-73
2021/05/01 08:58:11;;;;;;;2.72;2.53;;;19.70;99.90;;;;;;5031593;28;20204;-72
2021/05/01 09:00:40;;;;;;;3.20;2.90;;;19.70;99.90;;;;;;5024702;28;20216;-73
2021/05/01 09:03:11;;;;;;;2.63;2.42;;;19.60;99.90;;;;;;5025205;28;20223;-73
2021/05/01 09:05:39;;;;;;;2.40;2.30;;;19.70;99.90;;;;;;5023673;28;20222;-73
2021/05/01 09:08:07;;;;;;;2.65;2.42;;;19.70;99.90;;;;;;5040162;28;20195;-73
2021/05/01 09:10:39;;;;;;;2.47;2.28;;;19.60;99.90;;;;;;5022575;28;20223;-74
2021/05/01 09:13:13;;;;;;;2.28;2.15;;;19.70;99.90;;;;;;5034291;28;20202;-71
2021/05/01 09:15:42;;;;;;;2.63;2.42;;;20.10;99.90;;;;;;5030925;28;20268;-71
2021/05/01 09:18:09;;;;;;;2.63;2.42;;;20.10;99.90;;;;;;5030418;28;20196;-74
2021/05/01 09:20:36;;;;;;;3.00;2.70;;;20.40;99.90;;;;;;5017354;28;20230;-74
2021/05/01 09:23:06;;;;;;;2.42;2.22;;;20.50;99.90;;;;;;5016951;28;20216;-74
2021/05/01 09:25:35;;;;;;;3.80;2.10;;;20.70;99.90;;;;;;5012167;28;20227;-73
2021/05/01 09:28:06;;;;;;;3.92;2.10;;;20.70;99.90;;;;;;5018226;28;20574;-72
2021/05/01 09:30:34;;;;;;;2.20;2.00;;;21.10;99.90;;;;;;5028882;28;20309;-73
2021/05/01 09:33:25;;;;;;;2.60;2.40;;;21.30;99.90;;;;;;5031942;28;20272;-73
2021/05/01 09:36:01;;;;;;;2.25;2.05;;;21.00;99.90;;;;;;5026894;28;20227;-73
2021/05/01 09:38:37;;;;;;;2.53;1.98;;;20.70;99.90;;;;;;5030085;28;20222;-73
2021/05/01 09:41:10;;;;;;;3.30;1.60;;;20.60;99.90;;;;;;5031220;28;20629;-73
2021/05/01 09:43:53;;;;;;;1.92;1.80;;;20.50;99.90;;;;;;5032245;28;20399;-73
2021/05/01 09:46:20;;;;;;;1.90;1.80;;;20.70;99.90;;;;;;5038595;28;20226;-72
2021/05/01 09:49:05;;;;;;;2.33;2.13;;;20.90;99.90;;;;;;5025963;28;20258;-73
2021/05/01 09:51:33;;;;;;;1.77;1.67;;;20.90;99.90;;;;;;5028578;28;20233;-73
2021/05/01 09:54:00;;;;;;;2.00;1.90;;;20.80;99.90;;;;;;5047995;28;20195;-74
2021/05/01 09:56:29;;;;;;;2.92;2.13;;;20.90;99.90;;;;;;5036901;28;20241;-73
2021/05/01 09:58:56;;;;;;;2.72;1.65;;;20.70;99.90;;;;;;5035048;28;20251;-73
2021/05/01 10:01:24;;;;;;;1.52;1.42;;;20.70;99.90;;;;;;5028375;28;20633;-74
2021/05/01 10:03:52;;;;;;;1.70;1.60;;;21.00;99.90;;;;;;5023545;28;20674;-74
2021/05/01 10:06:20;;;;;;;1.60;1.50;;;21.10;99.90;;;;;;5017388;28;20215;-75
2021/05/01 10:08:57;;;;;;;2.65;1.73;;;21.30;99.90;;;;;;5020420;28;20198;-73
2021/05/01 10:11:29;;;;;;;1.60;1.50;;;21.70;99.90;;;;;;5010252;28;20253;-74
2021/05/01 10:13:57;;;;;;;3.63;1.75;;;21.70;99.90;;;;;;5015717;28;20227;-75
2021/05/01 10:16:25;;;;;;;2.60;1.70;;;21.70;99.90;;;;;;5012986;28;20624;-73
2021/05/01 10:19:10;;;;;;;1.85;1.75;;;21.20;99.90;;;;;;5012862;28;20207;-75
2021/05/01 10:21:38;;;;;;;2.03;1.70;;;20.90;99.90;;;;;;5015034;28;20230;-75
2021/05/01 10:24:06;;;;;;;3.53;1.92;;;21.00;99.90;;;;;;5028896;28;20195;-75
2021/05/01 10:26:47;;;;;;;2.30;1.73;;;21.20;99.90;;;;;;5020877;28;20693;-74
2021/05/01 10:29:27;;;;;;;1.50;1.40;;;21.20;99.90;;;;;;5023859;28;20199;-76
2021/05/01 10:31:55;;;;;;;11.68;4.28;;;21.10;99.90;;;;;;5022921;28;20234;-75
2021/05/01 10:34:25;;;;;;;21.23;7.80;;;21.10;99.90;;;;;;5027120;28;20212;-76
2021/05/01 10:36:54;;;;;;;16.90;6.85;;;21.30;99.90;;;;;;5029535;28;20226;-76
2021/05/01 10:39:21;;;;;;;21.00;6.43;;;21.80;99.90;;;;;;5025536;28;20574;-75
2021/05/01 10:41:55;;;;;;;4.45;2.70;;;22.10;99.90;;;;;;5026957;28;20230;-73
2021/05/01 10:44:22;;;;;;;2.50;1.77;;;22.00;99.90;;;;;;5028856;28;20224;-75
2021/05/01 10:46:49;;;;;;;1.98;1.60;;;21.80;99.90;;;;;;5024762;28;20249;-76
2021/05/01 10:49:16;;;;;;;1.42;1.33;;;21.80;99.90;;;;;;5033021;28;20199;-74
2021/05/01 10:51:45;;;;;;;1.63;1.40;;;22.00;99.90;;;;;;5020494;28;20761;-76
2021/05/01 10:54:13;;;;;;;1.45;1.23;;;22.40;99.90;;;;;;5025142;28;20202;-74
2021/05/01 10:56:44;;;;;;;1.15;1.08;;;22.40;99.90;;;;;;5014384;28;20215;-76
2021/05/01 10:59:12;;;;;;;1.33;1.20;;;22.60;99.90;;;;;;5023124;28;20192;-72
2021/05/01 11:01:46;;;;;;;1.48;1.00;;;23.00;99.90;;;;;;5023688;28;20604;-76
2021/05/01 11:04:18;;;;;;;1.40;1.30;;;23.30;99.90;;;;;;5029520;28;20191;-76
2021/05/01 11:06:48;;;;;;;1.10;1.10;;;23.50;99.90;;;;;;5030853;28;20226;-76
2021/05/01 11:09:26;;;;;;;1.33;1.05;;;23.10;99.90;;;;;;5021121;28;20666;-76
2021/05/01 11:12:00;;;;;;;1.40;1.30;;;22.80;99.90;;;;;;5026322;28;20235;-76
2021/05/01 11:14:30;;;;;;;1.38;1.27;;;22.60;99.90;;;;;;5029172;28;20206;-75
2021/05/01 11:17:10;;;;;;;1.45;1.25;;;22.40;99.90;;;;;;5023133;28;20224;-75
2021/05/01 11:19:43;;;;;;;1.30;1.20;;;22.00;99.90;;;;;;5031098;28;20678;-75
2021/05/01 11:22:15;;;;;;;1.50;1.40;;;21.50;99.90;;;;;;5032494;28;20724;-77
2021/05/01 11:24:43;;;;;;;1.58;1.48;;;21.30;99.90;;;;;;5033402;28;20214;-76
2021/05/01 11:27:10;;;;;;;1.88;1.48;;;21.00;99.90;;;;;;5021277;28;20789;-76
2021/05/01 11:29:38;;;;;;;1.60;1.50;;;20.70;99.90;;;;;;5025821;28;20195;-76
2021/05/01 11:32:06;;;;;;;2.15;1.40;;;20.60;99.90;;;;;;5022835;28;20222;-75
2021/05/01 11:34:34;;;;;;;2.67;1.95;;;20.60;99.90;;;;;;5025676;28;20211;-75
2021/05/01 11:37:05;;;;;;;1.80;1.67;;;20.40;99.90;;;;;;5017663;28;20227;-76
2021/05/01 11:39:38;;;;;;;1.77;1.67;;;20.20;99.90;;;;;;5021073;28;20201;-76
2021/05/01 11:42:05;;;;;;;1.70;1.60;;;20.10;99.90;;;;;;5034685;28;20222;-75
2021/05/01 11:44:32;;;;;;;2.03;1.33;;;19.80;99.90;;;;;;5021642;28;20209;-75
2021/05/01 11:47:00;;;;;;;3.55;1.67;;;19.50;99.90;;;;;;5018351;28;20223;-74
2021/05/01 11:49:29;;;;;;;3.33;1.73;;;19.20;99.90;;;;;;5017089;28;20189;-75
2021/05/01 11:52:28;;;;;;;3.28;1.80;;;18.90;99.90;;;;;;5020115;28;20242;-73
2021/05/01 11:55:09;;;;;;;1.60;1.50;;;18.60;99.90;;;;;;4999378;28;20793;-74
2021/05/01 11:57:44;;;;;;;1.80;1.63;;;18.20;99.90;;;;;;5020682;28;20223;-74
2021/05/01 12:00:12;;;;;;;2.33;1.95;;;17.90;99.90;;;;;;5025485;28;20669;-75
2021/05/01 12:02:39;;;;;;;2.78;1.80;;;17.70;99.90;;;;;;5022811;28;20241;-73
2021/05/01 12:05:12;;;;;;;2.08;1.70;;;17.60;99.90;;;;;;5026179;28;20717;-75
2021/05/01 12:07:45;;;;;;;2.13;1.90;;;17.50;99.90;;;;;;5025001;28;20324;-75
2021/05/01 12:10:15;;;;;;;2.63;1.80;;;17.30;99.90;;;;;;5022408;28;20195;-72
2021/05/01 12:12:47;;;;;;;1.73;1.63;;;17.20;99.90;;;;;;5031943;28;20241;-75
2021/05/01 12:15:15;;;;;;;3.85;1.98;;;17.20;99.90;;;;;;5024679;28;20196;-75
2021/05/01 12:17:51;;;;;;;2.53;1.70;;;17.10;99.90;;;;;;5026759;28;20890;-74
2021/05/01 12:20:19;;;;;;;1.67;1.58;;;17.10;99.90;;;;;;5024456;28;20210;-75
2021/05/01 12:22:45;;;;;;;1.60;1.50;;;17.10;99.90;;;;;;5029264;28;20220;-75
2021/05/01 12:25:41;;;;;;;2.22;1.70;;;17.20;99.90;;;;;;5025722;28;20686;-75
2021/05/01 12:28:09;;;;;;;1.80;1.70;;;17.30;99.90;;;;;;5018810;28;20274;-73
2021/05/01 12:31:00;;;;;;;1.60;1.50;;;17.10;99.90;;;;;;5025332;28;20428;-76
2021/05/01 12:33:51;;;;;;;1.73;1.63;;;17.00;99.90;;;;;;5023822;28;20215;-75
2021/05/01 12:36:28;;;;;;;1.60;1.50;;;16.80;99.90;;;;;;5042364;28;20195;-75
2021/05/01 12:38:57;;;;;;;3.22;1.42;;;16.70;99.90;;;;;;5027611;28;20226;-75
2021/05/01 12:41:32;;;;;;;2.50;1.40;;;16.70;99.90;;;;;;5024562;28;20321;-75
2021/05/01 12:43:59;;;;;;;1.70;1.60;;;16.90;99.90;;;;;;5021775;28;20230;-76
2021/05/01 12:46:43;;;;;;;1.65;1.52;;;17.00;99.90;;;;;;5023306;28;20200;-75
2021/05/01 12:49:28;;;;;;;1.85;1.67;;;17.20;99.90;;;;;;5023400;28;20215;-76
2021/05/01 12:52:01;;;;;;;1.88;1.67;;;17.30;99.90;;;;;;5025601;28;20717;-75
2021/05/01 12:54:36;;;;;;;1.92;1.70;;;17.50;99.90;;;;;;5062023;22;20222;-75